Time;durP1;ratioP1;P1;durP2;ratioP2;P2;SDS_P1;SDS_P2;PMS_P1;PMS_P2;Temp;Humidity;BMP_temperature;BMP_pressure;BME280_temperature;BME280_humidity;BME280_pressure;Samples;Min_cycle;Max_cycle;Signal;HPM_P1;HPM_P2
2022/11/21 00:00:28;;;;;;;0.60;0.60;;;;;;;;;;1851239;75;26334;-61
2022/11/21 00:02:57;;;;;;;0.60;0.60;;;;;;;;;;1853435;76;27594;-54
2022/11/21 00:05:24;;;;;;;0.80;0.80;;;;;;;;;;1869545;76;26329;-59
2022/11/21 00:07:52;;;;;;;0.70;0.70;;;;;;;;;;1848960;76;26329;-59
2022/11/21 00:10:19;;;;;;;0.72;0.72;;;;;;;;;;1872144;75;26280;-58
2022/11/21 00:12:46;;;;;;;0.60;0.60;;;;;;;;;;1853562;76;27228;-55
2022/11/21 00:15:14;;;;;;;0.70;0.70;;;;;;;;;;1854839;75;26290;-63
2022/11/21 00:17:41;;;;;;;0.60;0.60;;;;;;;;;;1853708;76;27283;-57
2022/11/21 00:20:08;;;;;;;0.72;0.72;;;;;;;;;;1854323;75;26276;-63
2022/11/21 00:22:36;;;;;;;1.05;0.60;;;;;;;;;;1848971;76;26300;-57
2022/11/21 00:25:04;;;;;;;0.70;0.70;;;;;;;;;;1851375;76;26737;-55
2022/11/21 00:27:31;;;;;;;0.80;0.80;;;;;;;;;;1852613;76;26287;-59
2022/11/21 00:29:58;;;;;;;0.70;0.70;;;;;;;;;;1852383;76;26252;-60
2022/11/21 00:32:26;;;;;;;0.70;0.70;;;;;;;;;;1862934;75;26258;-59
2022/11/21 00:34:53;;;;;;;0.60;0.60;;;;;;;;;;1852204;76;26259;-61
2022/11/21 00:37:20;;;;;;;0.75;0.75;;;;;;;;;;1864596;75;26276;-57
2022/11/21 00:39:47;;;;;;;0.60;0.60;;;;;;;;;;1851262;76;26553;-62
2022/11/21 00:42:15;;;;;;;1.17;0.75;;;;;;;;;;1851631;75;26271;-64
2022/11/21 00:44:42;;;;;;;0.82;0.82;;;;;;;;;;1862973;76;26877;-62
2022/11/21 00:47:09;;;;;;;0.70;0.70;;;;;;;;;;1873724;76;26269;-51
2022/11/21 00:49:36;;;;;;;0.70;0.70;;;;;;;;;;1865356;76;26330;-60
2022/11/21 00:52:04;;;;;;;0.70;0.70;;;;;;;;;;1843049;76;26232;-60
2022/11/21 00:54:31;;;;;;;0.60;0.60;;;;;;;;;;1831145;76;27367;-62
2022/11/21 00:56:59;;;;;;;0.80;0.80;;;;;;;;;;1840047;76;26245;-61
2022/11/21 00:59:26;;;;;;;0.78;0.78;;;;;;;;;;1840678;76;26290;-52
2022/11/21 01:01:53;;;;;;;0.75;0.75;;;;;;;;;;1839275;76;27305;-61
2022/11/21 01:04:20;;;;;;;0.80;0.80;;;;;;;;;;1855222;76;26857;-61
2022/11/21 01:06:48;;;;;;;0.75;0.75;;;;;;;;;;1831191;76;26161;-61
2022/11/21 01:09:15;;;;;;;0.90;0.90;;;;;;;;;;1840789;76;26224;-53
2022/11/21 01:11:42;;;;;;;1.00;1.00;;;;;;;;;;1828666;76;26210;-57
2022/11/21 01:14:09;;;;;;;0.90;0.90;;;;;;;;;;1856243;76;26232;-61
2022/11/21 01:16:37;;;;;;;0.90;0.90;;;;;;;;;;1839889;76;26329;-61
2022/11/21 01:19:04;;;;;;;1.00;1.00;;;;;;;;;;1840023;76;26280;-59
2022/11/21 01:21:31;;;;;;;0.90;0.90;;;;;;;;;;1840077;76;27439;-51
2022/11/21 01:24:00;;;;;;;1.02;1.02;;;;;;;;;;1841108;76;26305;-57
2022/11/21 01:26:28;;;;;;;0.85;0.85;;;;;;;;;;1840761;76;26266;-62
2022/11/21 01:28:57;;;;;;;1.05;1.05;;;;;;;;;;1840269;76;26747;-59
2022/11/21 01:31:26;;;;;;;1.00;1.00;;;;;;;;;;1842471;76;26371;-62
2022/11/21 01:33:53;;;;;;;0.95;0.95;;;;;;;;;;1853456;76;26302;-52
2022/11/21 01:36:24;;;;;;;1.17;1.17;;;;;;;;;;1857289;76;26242;-60
2022/11/21 01:38:52;;;;;;;1.07;1.07;;;;;;;;;;1828762;76;27409;-57
2022/11/21 01:41:30;;;;;;;1.00;1.00;;;;;;;;;;1849612;76;26264;-53
2022/11/21 01:43:57;;;;;;;0.95;0.95;;;;;;;;;;1836402;76;26584;-60
2022/11/21 01:46:25;;;;;;;0.93;0.93;;;;;;;;;;1839576;76;26244;-60
2022/11/21 01:48:53;;;;;;;1.20;1.20;;;;;;;;;;1840571;76;26208;-53
2022/11/21 01:51:22;;;;;;;1.55;1.20;;;;;;;;;;1854551;76;26331;-60
2022/11/21 01:53:54;;;;;;;0.98;0.95;;;;;;;;;;1855204;76;26271;-56
2022/11/21 01:56:22;;;;;;;1.10;1.10;;;;;;;;;;1868901;76;26264;-60
2022/11/21 01:58:50;;;;;;;1.15;1.15;;;;;;;;;;1854731;76;26279;-59
2022/11/21 02:01:18;;;;;;;1.10;1.10;;;;;;;;;;1848888;76;26661;-60
2022/11/21 02:03:46;;;;;;;1.17;1.17;;;;;;;;;;1850236;76;26372;-50
2022/11/21 02:06:14;;;;;;;1.10;1.10;;;;;;;;;;1861950;76;26834;-58
2022/11/21 02:08:42;;;;;;;1.07;1.07;;;;;;;;;;1852762;76;27435;-60
2022/11/21 02:11:17;;;;;;;1.50;1.10;;;;;;;;;;1844165;76;26266;-59
2022/11/21 02:13:44;;;;;;;1.12;1.12;;;;;;;;;;1852552;76;26876;-61
2022/11/21 02:16:12;;;;;;;1.02;1.02;;;;;;;;;;1860804;76;27723;-60
2022/11/21 02:18:39;;;;;;;1.10;1.10;;;;;;;;;;1852319;76;26267;-49
2022/11/21 02:21:08;;;;;;;1.05;1.05;;;;;;;;;;1853346;76;26260;-57
2022/11/21 02:23:36;;;;;;;1.30;1.30;;;;;;;;;;1846743;76;26597;-60
2022/11/21 02:26:04;;;;;;;1.10;1.10;;;;;;;;;;1860408;76;26287;-60
2022/11/21 02:28:31;;;;;;;1.15;1.15;;;;;;;;;;1852048;76;26322;-59
2022/11/21 02:30:58;;;;;;;1.10;1.10;;;;;;;;;;1866824;76;26252;-56
2022/11/21 02:33:26;;;;;;;1.40;1.40;;;;;;;;;;1871039;76;26374;-59
2022/11/21 02:35:57;;;;;;;1.82;1.30;;;;;;;;;;1852256;76;26248;-61
2022/11/21 02:38:25;;;;;;;1.00;1.00;;;;;;;;;;1866257;76;26542;-61
2022/11/21 02:40:54;;;;;;;1.30;1.30;;;;;;;;;;1856862;76;26355;-62
2022/11/21 02:43:32;;;;;;;1.20;1.20;;;;;;;;;;1854018;76;26363;-58
2022/11/21 02:45:59;;;;;;;1.20;1.20;;;;;;;;;;1864279;76;26260;-60
2022/11/21 02:48:27;;;;;;;1.05;1.05;;;;;;;;;;1850390;76;26310;-56
2022/11/21 02:50:54;;;;;;;1.22;1.22;;;;;;;;;;1848551;76;26766;-55
2022/11/21 02:53:21;;;;;;;1.20;1.20;;;;;;;;;;1849817;76;27547;-61
2022/11/21 02:55:48;;;;;;;1.30;1.30;;;;;;;;;;1853107;76;27350;-62
2022/11/21 02:58:16;;;;;;;1.20;1.20;;;;;;;;;;1866328;76;26880;-61
2022/11/21 03:00:43;;;;;;;1.30;1.30;;;;;;;;;;1835891;76;26293;-52
2022/11/21 03:03:10;;;;;;;1.20;1.20;;;;;;;;;;1852492;76;26320;-59
2022/11/21 03:05:38;;;;;;;1.42;1.42;;;;;;;;;;1843954;76;26263;-61
2022/11/21 03:08:06;;;;;;;1.40;1.30;;;;;;;;;;1850314;76;26252;-59
2022/11/21 03:10:33;;;;;;;1.20;1.20;;;;;;;;;;1854466;76;27365;-58
2022/11/21 03:13:01;;;;;;;1.10;1.10;;;;;;;;;;1853457;76;26277;-52
2022/11/21 03:15:29;;;;;;;1.20;1.20;;;;;;;;;;1855995;76;27022;-62
2022/11/21 03:17:56;;;;;;;1.40;1.40;;;;;;;;;;1855117;76;26386;-62
2022/11/21 03:20:24;;;;;;;1.25;1.25;;;;;;;;;;1840205;76;26547;-59
2022/11/21 03:22:52;;;;;;;1.10;1.10;;;;;;;;;;1854462;76;26285;-57
2022/11/21 03:25:20;;;;;;;1.30;1.30;;;;;;;;;;1845266;76;26326;-57
2022/11/21 03:27:48;;;;;;;1.10;1.10;;;;;;;;;;1851231;76;26341;-60
2022/11/21 03:30:16;;;;;;;1.25;1.25;;;;;;;;;;1852051;76;26294;-61
2022/11/21 03:32:43;;;;;;;1.32;1.32;;;;;;;;;;1851383;76;26727;-61
2022/11/21 03:35:10;;;;;;;1.25;1.22;;;;;;;;;;1851638;76;26204;-50
2022/11/21 03:37:38;;;;;;;1.32;1.32;;;;;;;;;;1845193;76;26211;-61
2022/11/21 03:40:05;;;;;;;1.20;1.20;;;;;;;;;;1825186;76;26328;-60
2022/11/21 03:42:33;;;;;;;1.35;1.35;;;;;;;;;;1861585;76;26760;-54
2022/11/21 03:45:00;;;;;;;1.30;1.30;;;;;;;;;;1852029;76;26833;-61
2022/11/21 03:47:27;;;;;;;1.20;1.20;;;;;;;;;;1854645;76;26801;-54
2022/11/21 03:49:54;;;;;;;1.40;1.40;;;;;;;;;;1850006;76;26800;-62
2022/11/21 03:52:22;;;;;;;1.20;1.20;;;;;;;;;;1832418;76;27593;-61
2022/11/21 03:54:49;;;;;;;1.35;1.35;;;;;;;;;;1844173;76;26252;-57
2022/11/21 03:57:16;;;;;;;1.30;1.30;;;;;;;;;;1840451;76;26243;-58
2022/11/21 03:59:44;;;;;;;1.35;1.35;;;;;;;;;;1842130;76;26263;-58
2022/11/21 04:02:11;;;;;;;1.30;1.30;;;;;;;;;;1841643;76;26788;-56
2022/11/21 04:04:38;;;;;;;1.32;1.32;;;;;;;;;;1834187;76;26848;-59
2022/11/21 04:07:05;;;;;;;1.35;1.35;;;;;;;;;;1840948;76;26240;-61
2022/11/21 04:09:33;;;;;;;1.30;1.30;;;;;;;;;;1839943;76;26286;-54
2022/11/21 04:12:00;;;;;;;1.40;1.40;;;;;;;;;;1857121;75;26354;-58
2022/11/21 04:14:27;;;;;;;1.42;1.40;;;;;;;;;;1847755;76;26409;-62
2022/11/21 04:16:54;;;;;;;1.15;1.15;;;;;;;;;;1840385;76;27355;-60
2022/11/21 04:19:22;;;;;;;1.35;1.35;;;;;;;;;;1851057;76;27609;-61
2022/11/21 04:21:50;;;;;;;1.22;1.22;;;;;;;;;;1850106;76;26308;-58
2022/11/21 04:24:17;;;;;;;1.20;1.20;;;;;;;;;;1857405;76;26547;-61
2022/11/21 04:26:44;;;;;;;1.30;1.30;;;;;;;;;;1854121;76;26330;-60
2022/11/21 04:29:11;;;;;;;1.20;1.20;;;;;;;;;;1859738;76;26240;-61
2022/11/21 04:31:39;;;;;;;1.10;1.10;;;;;;;;;;1840724;76;26236;-54
2022/11/21 04:34:06;;;;;;;1.30;1.30;;;;;;;;;;1840332;76;26293;-56
2022/11/21 04:36:33;;;;;;;1.42;1.32;;;;;;;;;;1837691;76;26354;-60
2022/11/21 04:39:00;;;;;;;1.20;1.20;;;;;;;;;;1838563;76;26365;-60
2022/11/21 04:41:28;;;;;;;1.15;1.15;;;;;;;;;;1838704;76;26294;-60
2022/11/21 04:43:55;;;;;;;1.40;1.40;;;;;;;;;;1842211;76;26395;-52
2022/11/21 04:46:22;;;;;;;1.25;1.25;;;;;;;;;;1849195;75;26334;-61
2022/11/21 04:48:49;;;;;;;1.20;1.20;;;;;;;;;;1848521;75;25961;-61
2022/11/21 04:51:17;;;;;;;1.35;1.35;;;;;;;;;;1851604;76;26852;-61
2022/11/21 04:53:44;;;;;;;1.25;1.25;;;;;;;;;;1840520;76;26665;-61
2022/11/21 04:56:15;;;;;;;1.20;1.20;;;;;;;;;;1840116;76;26697;-53
2022/11/21 04:58:40;;;;;;;1.47;1.47;;;;;;;;;;1837502;76;26775;-59
2022/11/21 05:01:09;;;;;;;1.20;1.20;;;;;;;;;;1841942;76;26614;-49
2022/11/21 05:03:36;;;;;;;1.30;1.30;;;;;;;;;;1840616;76;26310;-58
2022/11/21 05:06:04;;;;;;;1.40;1.40;;;;;;;;;;1839766;76;26212;-56
2022/11/21 05:08:32;;;;;;;1.37;1.37;;;;;;;;;;1840884;76;26688;-59
2022/11/21 05:13:45;;;;;;;1.22;1.22;;;;;;;;;;1838664;76;26264;-58
2022/11/21 05:16:12;;;;;;;1.07;1.07;;;;;;;;;;1840475;76;26829;-61
2022/11/21 05:18:39;;;;;;;1.20;1.20;;;;;;;;;;1842408;76;26310;-59
2022/11/21 05:21:07;;;;;;;1.20;1.20;;;;;;;;;;1846230;76;26208;-58
2022/11/21 05:23:34;;;;;;;1.30;1.20;;;;;;;;;;1841677;76;26268;-54
2022/11/21 05:26:01;;;;;;;1.10;1.10;;;;;;;;;;1840749;76;26228;-55
2022/11/21 05:28:28;;;;;;;1.30;1.30;;;;;;;;;;1840151;76;26959;-57
2022/11/21 05:30:56;;;;;;;1.40;1.40;;;;;;;;;;1840444;76;26842;-58
2022/11/21 05:33:24;;;;;;;1.20;1.20;;;;;;;;;;1851707;75;26334;-53
2022/11/21 05:35:51;;;;;;;1.50;1.10;;;;;;;;;;1843526;75;26266;-57
2022/11/21 05:38:18;;;;;;;1.30;1.30;;;;;;;;;;1855731;75;26289;-55
2022/11/21 05:40:45;;;;;;;1.20;1.20;;;;;;;;;;1869641;75;26789;-61
2022/11/21 05:45:58;;;;;;;1.30;1.30;;;;;;;;;;1861474;75;26361;-61
2022/11/21 05:48:25;;;;;;;1.20;1.20;;;;;;;;;;1867207;75;26244;-62
2022/11/21 05:50:52;;;;;;;1.10;1.10;;;;;;;;;;1861132;75;26239;-55
2022/11/21 05:53:20;;;;;;;1.20;1.20;;;;;;;;;;1866424;75;26266;-52
2022/11/21 05:55:47;;;;;;;1.22;1.22;;;;;;;;;;1865602;75;26925;-58
2022/11/21 05:58:14;;;;;;;1.20;1.20;;;;;;;;;;1856196;75;26863;-58
2022/11/21 06:00:42;;;;;;;1.10;1.10;;;;;;;;;;1859708;75;26393;-52
2022/11/21 06:06:03;;;;;;;1.30;1.30;;;;;;;;;;1870526;75;26339;-58
2022/11/21 06:08:32;;;;;;;1.40;1.30;;;;;;;;;;1873680;76;26333;-57
2022/11/21 06:10:59;;;;;;;1.80;1.30;;;;;;;;;;1871352;75;26312;-57
2022/11/21 06:13:27;;;;;;;1.20;1.20;;;;;;;;;;1872680;76;26274;-59
2022/11/21 06:16:01;;;;;;;1.20;1.20;;;;;;;;;;1867309;75;26717;-57
2022/11/21 06:18:30;;;;;;;1.82;1.20;;;;;;;;;;1877484;75;26271;-60
2022/11/21 06:21:04;;;;;;;1.40;1.40;;;;;;;;;;1859120;75;26813;-59
2022/11/21 06:23:31;;;;;;;1.43;1.43;;;;;;;;;;1864308;75;26360;-59
2022/11/21 06:26:00;;;;;;;1.47;1.40;;;;;;;;;;1854911;75;26658;-61
2022/11/21 06:28:29;;;;;;;1.27;1.27;;;;;;;;;;1851973;75;26305;-55
2022/11/21 06:30:56;;;;;;;1.40;1.40;;;;;;;;;;1855022;76;26780;-60
2022/11/21 06:33:24;;;;;;;1.37;1.27;;;;;;;;;;1848998;75;26407;-58
2022/11/21 06:35:51;;;;;;;1.70;1.60;;;;;;;;;;1850858;75;26381;-59
2022/11/21 06:38:18;;;;;;;1.50;1.40;;;;;;;;;;1857509;75;26333;-54
2022/11/21 06:40:46;;;;;;;1.57;1.50;;;;;;;;;;1851568;76;26316;-59
2022/11/21 06:43:13;;;;;;;1.42;1.42;;;;;;;;;;1861927;75;26306;-59
2022/11/21 06:45:40;;;;;;;1.85;1.60;;;;;;;;;;1860606;75;26298;-63
2022/11/21 06:48:08;;;;;;;1.20;1.20;;;;;;;;;;1869792;75;26200;-62
2022/11/21 06:50:35;;;;;;;1.32;1.22;;;;;;;;;;1863168;75;26340;-56
2022/11/21 06:53:02;;;;;;;1.72;1.32;;;;;;;;;;1865735;75;26369;-63
2022/11/21 06:55:30;;;;;;;1.20;1.20;;;;;;;;;;1864995;75;26364;-62
2022/11/21 06:57:58;;;;;;;1.92;1.40;;;;;;;;;;1862604;75;26191;-63
2022/11/21 07:00:31;;;;;;;1.50;1.40;;;;;;;;;;1867960;75;26666;-58
2022/11/21 07:02:57;;;;;;;1.60;1.55;;;;;;;;;;1863780;75;26295;-56
2022/11/21 07:05:24;;;;;;;1.50;1.40;;;;;;;;;;1861386;75;26307;-57
2022/11/21 07:07:51;;;;;;;1.45;1.45;;;;;;;;;;1863224;75;26264;-63
2022/11/21 07:10:19;;;;;;;1.40;1.40;;;;;;;;;;1872265;75;26259;-60
2022/11/21 07:15:32;;;;;;;1.40;1.40;;;;;;;;;;1860152;75;26960;-61
2022/11/21 07:17:59;;;;;;;1.30;1.30;;;;;;;;;;1848603;75;26330;-61
2022/11/21 07:20:27;;;;;;;2.40;1.60;;;;;;;;;;1847951;75;26294;-62
2022/11/21 07:22:54;;;;;;;1.27;1.20;;;;;;;;;;1843873;75;26395;-57
2022/11/21 07:25:22;;;;;;;1.35;1.25;;;;;;;;;;1851196;75;26470;-60
2022/11/21 07:27:49;;;;;;;1.60;1.20;;;;;;;;;;1852035;75;26282;-54
2022/11/21 07:30:16;;;;;;;1.42;1.32;;;;;;;;;;1852317;75;26822;-60
2022/11/21 07:32:44;;;;;;;1.47;1.37;;;;;;;;;;1859420;75;26278;-57
2022/11/21 07:35:11;;;;;;;1.20;1.20;;;;;;;;;;1824714;76;26408;-55
2022/11/21 07:37:39;;;;;;;1.37;1.27;;;;;;;;;;1822751;77;26259;-54
2022/11/21 07:40:06;;;;;;;1.00;1.00;;;;;;;;;;1826752;76;26293;-59
2022/11/21 07:42:34;;;;;;;2.30;1.37;;;;;;;;;;1825548;77;26384;-59
2022/11/21 07:45:01;;;;;;;1.00;1.00;;;;;;;;;;1827872;76;26570;-57
2022/11/21 07:47:28;;;;;;;2.62;1.50;;;;;;;;;;1832398;76;26352;-57
2022/11/21 07:49:55;;;;;;;1.10;1.10;;;;;;;;;;1827657;77;26561;-58
2022/11/21 07:52:24;;;;;;;1.00;1.00;;;;;;;;;;1827630;77;26259;-58
2022/11/21 07:54:51;;;;;;;2.50;1.00;;;;;;;;;;1831971;77;26338;-55
2022/11/21 07:57:18;;;;;;;1.05;1.00;;;;;;;;;;1832295;76;26308;-57
2022/11/21 07:59:46;;;;;;;1.02;1.02;;;;;;;;;;1832147;77;26357;-52
2022/11/21 08:02:18;;;;;;;0.93;0.93;;;;;;;;;;1837197;76;26257;-54
2022/11/21 08:04:45;;;;;;;1.70;0.88;;;;;;;;;;1833288;77;26710;-56
2022/11/21 08:07:13;;;;;;;1.37;0.95;;;;;;;;;;1825107;76;26428;-59
2022/11/21 08:09:40;;;;;;;1.37;0.90;;;;;;;;;;1837140;77;26241;-57
2022/11/21 08:12:08;;;;;;;1.00;1.00;;;;;;;;;;1835774;77;26262;-53
2022/11/21 08:14:35;;;;;;;0.82;0.82;;;;;;;;;;1838509;77;26624;-55
2022/11/21 08:17:03;;;;;;;0.90;0.90;;;;;;;;;;1829467;77;26279;-57
2022/11/21 08:19:31;;;;;;;0.88;0.88;;;;;;;;;;1833495;76;26968;-55
2022/11/21 08:21:58;;;;;;;2.02;0.85;;;;;;;;;;1831160;77;26333;-59
2022/11/21 08:24:26;;;;;;;1.62;0.88;;;;;;;;;;1832964;77;27046;-51
2022/11/21 08:26:53;;;;;;;0.80;0.80;;;;;;;;;;1835063;77;26357;-69
2022/11/21 08:29:21;;;;;;;0.90;0.90;;;;;;;;;;1834604;76;26291;-58
2022/11/21 08:31:48;;;;;;;0.80;0.80;;;;;;;;;;1837047;77;27179;-54
2022/11/21 08:34:15;;;;;;;0.80;0.80;;;;;;;;;;1846048;76;26220;-55
2022/11/21 08:36:42;;;;;;;0.82;0.82;;;;;;;;;;1853360;76;26459;-60
2022/11/21 08:39:10;;;;;;;1.95;0.70;;;;;;;;;;1852989;75;26670;-59
2022/11/21 08:44:22;;;;;;;0.85;0.85;;;;;;;;;;1859675;76;26343;-57
2022/11/21 08:46:50;;;;;;;0.70;0.70;;;;;;;;;;1857640;76;26332;-57
2022/11/21 08:49:17;;;;;;;0.62;0.62;;;;;;;;;;1853492;75;26333;-60
2022/11/21 08:51:48;;;;;;;1.62;0.75;;;;;;;;;;1851999;75;26318;-53
2022/11/21 08:54:15;;;;;;;0.70;0.70;;;;;;;;;;1862695;75;26792;-57
2022/11/21 08:56:43;;;;;;;0.80;0.80;;;;;;;;;;1852081;76;27276;-57
2022/11/21 08:59:10;;;;;;;0.70;0.70;;;;;;;;;;1852576;75;26318;-57
2022/11/21 09:01:38;;;;;;;2.75;0.80;;;;;;;;;;1855249;75;26278;-58
2022/11/21 09:04:05;;;;;;;0.50;0.50;;;;;;;;;;1856707;75;26880;-58
2022/11/21 09:06:33;;;;;;;0.60;0.60;;;;;;;;;;1853420;76;26416;-57
2022/11/21 09:09:00;;;;;;;0.53;0.53;;;;;;;;;;1854866;76;26896;-51
2022/11/21 09:11:27;;;;;;;0.50;0.50;;;;;;;;;;1859393;75;27030;-53
2022/11/21 09:19:26;;;;;;;0.90;0.50;;;;;;;;;;1857711;76;26314;-58
2022/11/21 09:21:53;;;;;;;0.68;0.68;;;;;;;;;;1853756;76;26948;-58
2022/11/21 09:24:21;;;;;;;0.60;0.60;;;;;;;;;;1855278;75;26293;-58
2022/11/21 09:26:48;;;;;;;0.60;0.60;;;;;;;;;;1855803;76;26273;-61
2022/11/21 09:29:15;;;;;;;0.68;0.68;;;;;;;;;;1855052;76;28238;-58
2022/11/21 09:31:43;;;;;;;0.70;0.70;;;;;;;;;;1853176;75;27572;-57
2022/11/21 09:34:11;;;;;;;1.30;0.80;;;;;;;;;;1865806;75;26352;-57
2022/11/21 09:36:38;;;;;;;0.70;0.70;;;;;;;;;;1881410;75;26310;-57
2022/11/21 09:39:05;;;;;;;0.57;0.57;;;;;;;;;;1884351;75;26809;-59
2022/11/21 09:41:52;;;;;;;0.70;0.70;;;;;;;;;;1869968;75;26775;-57
2022/11/21 09:44:27;;;;;;;0.72;0.72;;;;;;;;;;1863070;75;26655;-56
2022/11/21 09:46:55;;;;;;;1.57;0.80;;;;;;;;;;1875341;75;26703;-49
2022/11/21 09:49:25;;;;;;;0.82;0.60;;;;;;;;;;1875408;75;27232;-54
2022/11/21 09:51:53;;;;;;;0.82;0.82;;;;;;;;;;1881355;75;26407;-51
2022/11/21 09:54:25;;;;;;;0.80;0.80;;;;;;;;;;1876670;75;26759;-50
2022/11/21 09:56:53;;;;;;;0.60;0.60;;;;;;;;;;1873281;75;26292;-57
2022/11/21 09:59:25;;;;;;;1.07;0.68;;;;;;;;;;1874635;75;26597;-57
2022/11/21 10:01:52;;;;;;;0.80;0.80;;;;;;;;;;1875108;75;26384;-53
2022/11/21 10:04:20;;;;;;;0.80;0.80;;;;;;;;;;1874697;75;26278;-48
2022/11/21 10:06:48;;;;;;;0.70;0.70;;;;;;;;;;1872941;75;26868;-58
2022/11/21 10:09:22;;;;;;;0.80;0.80;;;;;;;;;;1870941;75;26230;-58
2022/11/21 10:14:40;;;;;;;0.80;0.80;;;;;;;;;;1878955;75;26294;-55
2022/11/21 10:17:09;;;;;;;0.72;0.70;;;;;;;;;;1879723;75;26317;-56
2022/11/21 10:19:38;;;;;;;0.70;0.70;;;;;;;;;;1871997;75;26259;-53
2022/11/21 10:22:24;;;;;;;0.70;0.70;;;;;;;;;;1875952;75;26783;-55
2022/11/21 10:25:02;;;;;;;0.70;0.70;;;;;;;;;;1874288;75;25715;-49
2022/11/21 10:27:43;;;;;;;0.70;0.70;;;;;;;;;;1875298;75;26322;-52
2022/11/21 10:30:15;;;;;;;0.70;0.70;;;;;;;;;;1871526;74;27012;-55
2022/11/21 10:32:47;;;;;;;0.80;0.80;;;;;;;;;;1866772;75;26319;-57
2022/11/21 10:35:15;;;;;;;0.70;0.70;;;;;;;;;;1865189;75;26771;-59
2022/11/21 10:37:52;;;;;;;0.70;0.70;;;;;;;;;;1891915;73;26274;-58
2022/11/21 10:40:27;;;;;;;0.70;0.70;;;;;;;;;;1904503;74;26253;-56
2022/11/21 10:42:56;;;;;;;0.70;0.70;;;;;;;;;;1898265;74;26235;-56
2022/11/21 10:45:24;;;;;;;1.00;1.00;;;;;;;;;;1895292;74;26293;-56
2022/11/21 10:47:52;;;;;;;0.75;0.75;;;;;;;;;;1895355;74;26314;-56
2022/11/21 10:50:37;;;;;;;0.70;0.70;;;;;;;;;;1894279;74;26833;-56
2022/11/21 10:54:31;;;;;;;1.37;0.62;;;;;;;;;;1894610;74;27482;-53
2022/11/21 10:55:34;;;;;;;0.60;0.60;;;;;;;;;;1891386;74;26364;-55
2022/11/21 10:58:03;;;;;;;0.60;0.60;;;;;;;;;;1895064;74;26266;-53
2022/11/21 11:00:30;;;;;;;0.70;0.70;;;;;;;;;;1896506;74;26223;-55
2022/11/21 11:03:03;;;;;;;0.80;0.80;;;;;;;;;;1896405;74;26292;-56
2022/11/21 11:05:29;;;;;;;0.60;0.60;;;;;;;;;;1900640;74;26285;-56
2022/11/21 11:08:07;;;;;;;0.72;0.72;;;;;;;;;;1895077;74;26253;-56
2022/11/21 11:10:35;;;;;;;0.45;0.45;;;;;;;;;;1899235;74;26577;-57
2022/11/21 11:15:54;;;;;;;0.60;0.60;;;;;;;;;;1892609;74;26371;-58
2022/11/21 11:18:23;;;;;;;1.12;0.75;;;;;;;;;;1898152;74;26342;-58
2022/11/21 11:20:50;;;;;;;0.70;0.70;;;;;;;;;;1895503;74;26261;-57
2022/11/21 11:23:19;;;;;;;2.15;0.60;;;;;;;;;;1899095;74;26277;-57
2022/11/21 11:25:47;;;;;;;1.30;0.62;;;;;;;;;;1900242;74;26262;-57
2022/11/21 11:28:15;;;;;;;1.85;0.60;;;;;;;;;;1901419;74;26257;-57
2022/11/21 11:30:42;;;;;;;1.60;0.50;;;;;;;;;;1895255;74;26743;-57
2022/11/21 11:33:29;;;;;;;1.87;0.50;;;;;;;;;;1894698;74;26354;-58
2022/11/21 11:35:58;;;;;;;0.50;0.50;;;;;;;;;;1893429;74;26261;-57
2022/11/21 11:38:26;;;;;;;0.50;0.50;;;;;;;;;;1890670;74;26618;-58
2022/11/21 11:40:53;;;;;;;1.25;0.47;;;;;;;;;;1897154;74;26315;-57
2022/11/21 11:49:02;;;;;;;0.60;0.60;;;;;;;;;;1835812;76;26253;-57
2022/11/21 11:51:31;;;;;;;0.47;0.47;;;;;;;;;;1884397;74;26324;-56
2022/11/21 11:54:03;;;;;;;0.50;0.50;;;;;;;;;;1894724;74;26595;-58
2022/11/21 11:56:35;;;;;;;0.50;0.50;;;;;;;;;;1894244;74;26737;-59
2022/11/21 11:59:04;;;;;;;0.60;0.60;;;;;;;;;;1896690;74;26265;-58
2022/11/21 12:01:43;;;;;;;1.00;0.50;;;;;;;;;;1893915;74;26837;-59
2022/11/21 12:04:14;;;;;;;0.50;0.50;;;;;;;;;;1895932;74;26332;-58
2022/11/21 12:06:43;;;;;;;0.60;0.60;;;;;;;;;;1895782;74;26275;-56
2022/11/21 12:09:18;;;;;;;0.50;0.50;;;;;;;;;;1891641;74;26688;-56
2022/11/21 12:12:08;;;;;;;0.40;0.40;;;;;;;;;;1897742;74;26239;-57
2022/11/21 12:17:23;;;;;;;0.40;0.40;;;;;;;;;;1888572;74;26425;-57
2022/11/21 12:19:52;;;;;;;0.50;0.50;;;;;;;;;;1903899;74;26437;-58
2022/11/21 12:22:19;;;;;;;0.50;0.50;;;;;;;;;;1897173;74;26291;-58
2022/11/21 12:24:46;;;;;;;0.60;0.60;;;;;;;;;;1902021;74;26253;-58
2022/11/21 12:27:18;;;;;;;0.60;0.60;;;;;;;;;;1898279;74;25896;-58
2022/11/21 12:29:47;;;;;;;0.57;0.57;;;;;;;;;;1898838;74;26327;-56
2022/11/21 12:32:16;;;;;;;0.50;0.50;;;;;;;;;;1896431;74;26279;-69
2022/11/21 12:34:45;;;;;;;0.62;0.53;;;;;;;;;;1892200;74;26238;-60
2022/11/21 12:37:32;;;;;;;0.60;0.60;;;;;;;;;;1896422;74;26290;-56
2022/11/21 12:40:17;;;;;;;0.60;0.60;;;;;;;;;;1909773;72;26641;-55
2022/11/21 12:42:52;;;;;;;0.50;0.50;;;;;;;;;;1901542;74;27359;-54
2022/11/21 12:45:26;;;;;;;0.53;0.53;;;;;;;;;;1899137;74;26263;-59
2022/11/21 12:56:10;;;;;;;0.60;0.60;;;;;;;;;;1865918;75;26310;-58
2022/11/21 12:58:39;;;;;;;0.50;0.50;;;;;;;;;;1897826;74;26742;-51
2022/11/21 13:01:17;;;;;;;0.50;0.50;;;;;;;;;;1894054;74;26276;-57
2022/11/21 13:03:52;;;;;;;0.60;0.60;;;;;;;;;;1893568;74;26999;-53
2022/11/21 13:06:24;;;;;;;0.72;0.60;;;;;;;;;;1893180;74;26825;-54
2022/11/21 13:08:52;;;;;;;0.55;0.55;;;;;;;;;;1893066;74;26353;-55
2022/11/21 13:14:11;;;;;;;0.50;0.50;;;;;;;;;;1898302;74;26313;-56
2022/11/21 13:16:43;;;;;;;0.60;0.60;;;;;;;;;;1897392;74;26758;-51
2022/11/21 13:19:13;;;;;;;0.50;0.50;;;;;;;;;;1895998;74;26303;-50
2022/11/21 13:21:46;;;;;;;1.52;0.60;;;;;;;;;;1886817;74;26275;-50
2022/11/21 13:24:32;;;;;;;0.47;0.47;;;;;;;;;;1897946;74;26238;-49
2022/11/21 13:26:59;;;;;;;0.70;0.70;;;;;;;;;;1902215;74;26218;-55
2022/11/21 13:29:26;;;;;;;0.50;0.50;;;;;;;;;;1896969;74;26530;-52
2022/11/21 13:31:53;;;;;;;0.50;0.50;;;;;;;;;;1893608;74;27320;-55
2022/11/21 13:34:28;;;;;;;0.50;0.50;;;;;;;;;;1894314;74;26269;-54
2022/11/21 13:36:55;;;;;;;0.47;0.47;;;;;;;;;;1898216;74;26269;-54
2022/11/21 13:39:30;;;;;;;5.78;0.62;;;;;;;;;;1896030;74;26262;-52
2022/11/21 13:44:44;;;;;;;0.60;0.60;;;;;;;;;;1889475;74;26361;-59
2022/11/21 13:47:12;;;;;;;0.50;0.50;;;;;;;;;;1899858;74;26262;-54
2022/11/21 13:49:44;;;;;;;0.60;0.60;;;;;;;;;;1895998;74;26292;-59
2022/11/21 13:52:28;;;;;;;0.50;0.50;;;;;;;;;;1894828;74;26621;-59
2022/11/21 13:55:03;;;;;;;0.40;0.40;;;;;;;;;;1901325;74;26816;-49
2022/11/21 13:57:44;;;;;;;0.40;0.40;;;;;;;;;;1894597;74;26229;-57
2022/11/21 14:00:28;;;;;;;0.47;0.47;;;;;;;;;;1891799;74;26281;-51
2022/11/21 14:03:09;;;;;;;0.50;0.50;;;;;;;;;;1893950;74;26500;-56
2022/11/21 14:05:38;;;;;;;0.50;0.50;;;;;;;;;;1898843;74;26320;-54
2022/11/21 14:08:13;;;;;;;0.53;0.53;;;;;;;;;;1873298;74;26297;-57
2022/11/21 14:10:41;;;;;;;0.45;0.45;;;;;;;;;;1896592;74;26291;-56
2022/11/21 14:13:10;;;;;;;0.50;0.50;;;;;;;;;;1899257;74;26286;-56
2022/11/21 14:15:51;;;;;;;0.60;0.60;;;;;;;;;;1892513;74;26646;-56
2022/11/21 14:18:21;;;;;;;0.50;0.50;;;;;;;;;;1888465;74;26332;-56
2022/11/21 14:20:52;;;;;;;0.50;0.50;;;;;;;;;;1894590;74;26716;-51
2022/11/21 14:23:21;;;;;;;0.55;0.55;;;;;;;;;;1896174;74;26267;-56
2022/11/21 14:25:50;;;;;;;0.60;0.60;;;;;;;;;;1898264;74;25339;-47
2022/11/21 14:28:19;;;;;;;0.60;0.60;;;;;;;;;;1895535;74;26241;-54
2022/11/21 14:30:46;;;;;;;0.55;0.55;;;;;;;;;;1897496;74;26279;-50
2022/11/21 14:33:21;;;;;;;0.60;0.60;;;;;;;;;;1893354;74;27943;-57
2022/11/21 14:35:50;;;;;;;0.50;0.50;;;;;;;;;;1892628;74;26278;-57
2022/11/21 14:38:19;;;;;;;0.50;0.50;;;;;;;;;;1898734;74;26325;-57
2022/11/21 14:40:46;;;;;;;0.50;0.50;;;;;;;;;;1897906;74;26305;-57
2022/11/21 14:43:24;;;;;;;0.50;0.50;;;;;;;;;;1900103;74;26328;-58
2022/11/21 14:45:51;;;;;;;0.53;0.53;;;;;;;;;;1888563;74;26700;-57
2022/11/21 14:48:20;;;;;;;0.40;0.40;;;;;;;;;;1893154;74;26215;-58
2022/11/21 14:50:48;;;;;;;0.60;0.60;;;;;;;;;;1904870;74;26318;-57
2022/11/21 14:53:15;;;;;;;0.42;0.42;;;;;;;;;;1896094;74;27282;-57
2022/11/21 14:55:44;;;;;;;0.53;0.53;;;;;;;;;;1900520;74;26291;-60
2022/11/21 14:58:13;;;;;;;0.50;0.50;;;;;;;;;;1901147;74;26233;-58
2022/11/21 15:00:40;;;;;;;0.60;0.60;;;;;;;;;;1897838;74;26277;-56
2022/11/21 15:03:11;;;;;;;0.50;0.50;;;;;;;;;;1897668;74;26684;-57
2022/11/21 15:05:39;;;;;;;0.60;0.60;;;;;;;;;;1890779;74;26296;-58
2022/11/21 15:08:08;;;;;;;0.60;0.60;;;;;;;;;;1899480;74;26297;-58
2022/11/21 15:10:35;;;;;;;0.60;0.60;;;;;;;;;;1890635;74;26925;-58
2022/11/21 15:13:04;;;;;;;0.68;0.60;;;;;;;;;;1892436;74;26292;-57
2022/11/21 15:15:36;;;;;;;0.60;0.60;;;;;;;;;;1893297;74;26238;-58
2022/11/21 15:18:04;;;;;;;0.57;0.57;;;;;;;;;;1896517;74;26343;-57
2022/11/21 15:20:32;;;;;;;0.70;0.70;;;;;;;;;;1896866;74;26288;-58
2022/11/21 15:23:00;;;;;;;0.45;0.45;;;;;;;;;;1896060;74;26664;-58
2022/11/21 15:25:28;;;;;;;0.60;0.60;;;;;;;;;;1897543;74;26300;-57
2022/11/21 15:28:01;;;;;;;0.50;0.50;;;;;;;;;;1901125;74;26352;-57
2022/11/21 15:30:29;;;;;;;0.60;0.60;;;;;;;;;;1894670;74;27322;-56
2022/11/21 15:33:01;;;;;;;0.60;0.60;;;;;;;;;;1892413;74;26246;-56
2022/11/21 15:35:29;;;;;;;0.60;0.60;;;;;;;;;;1893314;74;26266;-58
2022/11/21 15:37:56;;;;;;;0.62;0.62;;;;;;;;;;1892526;74;26323;-58
2022/11/21 15:40:24;;;;;;;0.42;0.42;;;;;;;;;;1893292;74;26260;-55